Terminal Aerodrome Forecast
Issued by NWS

Home | Current Version | Previous Version | Graphics & Text | Print | Product List | Glossary On
Versions: 1 2 3 4 5 6 7 8 9 10 11 12 13 14 15 16 17 18 19
000
FTUS43 KMPX 142337
TAFRWF
TAF
KRWF 142337Z 1500/1524 32010KT P6SM SCT020 BKN030
     FM150200 31010KT P6SM SCT030 BKN040
     FM150900 27008KT P6SM OVC050
     FM151200 25005KT P6SM OVC025
     FM152000 22006KT P6SM BKN040=

USA.gov is the U.S. government's official web portal to all federal, state and local government web resources and services.